sensor_id;sensor_type;location;lat;lon;timestamp;P1;durP1;ratioP1;P2;durP2;ratioP2
75634;SDS011;64227;48.724;9.104;2023-02-26T00:01:23;6.28;;;2.25;;
75634;SDS011;64227;48.724;9.104;2023-02-26T00:03:50;5.60;;;1.52;;
75634;SDS011;64227;48.724;9.104;2023-02-26T00:06:17;5.90;;;2.35;;
75634;SDS011;64227;48.724;9.104;2023-02-26T00:08:42;4.85;;;2.05;;
75634;SDS011;64227;48.724;9.104;2023-02-26T00:11:08;7.22;;;2.67;;
75634;SDS011;64227;48.724;9.104;2023-02-26T00:13:34;7.53;;;3.13;;
75634;SDS011;64227;48.724;9.104;2023-02-26T00:16:01;6.25;;;2.08;;
75634;SDS011;64227;48.724;9.104;2023-02-26T00:18:26;5.10;;;2.28;;
75634;SDS011;64227;48.724;9.104;2023-02-26T00:20:52;4.78;;;1.88;;
75634;SDS011;64227;48.724;9.104;2023-02-26T00:23:18;4.57;;;2.28;;
75634;SDS011;64227;48.724;9.104;2023-02-26T00:25:44;4.15;;;1.80;;
75634;SDS011;64227;48.724;9.104;2023-02-26T00:28:09;3.65;;;1.48;;
75634;SDS011;64227;48.724;9.104;2023-02-26T00:30:35;3.75;;;1.67;;
75634;SDS011;64227;48.724;9.104;2023-02-26T00:33:01;2.35;;;1.00;;
75634;SDS011;64227;48.724;9.104;2023-02-26T00:35:27;3.20;;;1.15;;
75634;SDS011;64227;48.724;9.104;2023-02-26T00:38:09;2.95;;;1.50;;
75634;SDS011;64227;48.724;9.104;2023-02-26T00:43:17;2.17;;;1.02;;
75634;SDS011;64227;48.724;9.104;2023-02-26T00:51:06;1.80;;;1.00;;
75634;SDS011;64227;48.724;9.104;2023-02-26T00:53:45;1.45;;;1.00;;
75634;SDS011;64227;48.724;9.104;2023-02-26T00:56:13;1.50;;;1.00;;
75634;SDS011;64227;48.724;9.104;2023-02-26T00:58:38;1.27;;;0.80;;
75634;SDS011;64227;48.724;9.104;2023-02-26T01:01:04;2.10;;;0.90;;
75634;SDS011;64227;48.724;9.104;2023-02-26T01:03:30;2.63;;;0.95;;
75634;SDS011;64227;48.724;9.104;2023-02-26T01:05:56;2.00;;;1.05;;
75634;SDS011;64227;48.724;9.104;2023-02-26T01:08:31;1.63;;;0.65;;
75634;SDS011;64227;48.724;9.104;2023-02-26T01:10:59;1.40;;;1.00;;
75634;SDS011;64227;48.724;9.104;2023-02-26T01:13:24;1.52;;;0.77;;
75634;SDS011;64227;48.724;9.104;2023-02-26T01:15:51;1.35;;;0.65;;
75634;SDS011;64227;48.724;9.104;2023-02-26T01:18:27;1.63;;;0.82;;
75634;SDS011;64227;48.724;9.104;2023-02-26T01:21:03;1.42;;;0.90;;
75634;SDS011;64227;48.724;9.104;2023-02-26T01:23:30;1.85;;;0.70;;
75634;SDS011;64227;48.724;9.104;2023-02-26T01:25:58;1.15;;;0.73;;
75634;SDS011;64227;48.724;9.104;2023-02-26T01:28:26;2.08;;;1.10;;
75634;SDS011;64227;48.724;9.104;2023-02-26T01:30:52;2.10;;;1.00;;
75634;SDS011;64227;48.724;9.104;2023-02-26T01:36:00;1.13;;;0.70;;
75634;SDS011;64227;48.724;9.104;2023-02-26T01:38:48;1.17;;;1.00;;
75634;SDS011;64227;48.724;9.104;2023-02-26T01:46:37;4.32;;;1.00;;
75634;SDS011;64227;48.724;9.104;2023-02-26T01:49:26;0.82;;;0.68;;
75634;SDS011;64227;48.724;9.104;2023-02-26T01:54:35;1.20;;;0.70;;
75634;SDS011;64227;48.724;9.104;2023-02-26T01:59:30;2.20;;;0.80;;
75634;SDS011;64227;48.724;9.104;2023-02-26T02:01:56;2.35;;;0.77;;
75634;SDS011;64227;48.724;9.104;2023-02-26T02:04:22;1.67;;;0.88;;
75634;SDS011;64227;48.724;9.104;2023-02-26T02:06:48;1.33;;;0.70;;
75634;SDS011;64227;48.724;9.104;2023-02-26T02:09:14;2.20;;;0.90;;
75634;SDS011;64227;48.724;9.104;2023-02-26T02:11:45;1.13;;;0.73;;
75634;SDS011;64227;48.724;9.104;2023-02-26T02:14:35;1.73;;;1.02;;
75634;SDS011;64227;48.724;9.104;2023-02-26T02:17:11;1.08;;;0.82;;
75634;SDS011;64227;48.724;9.104;2023-02-26T02:22:34;1.50;;;0.70;;
75634;SDS011;64227;48.724;9.104;2023-02-26T02:25:19;0.70;;;0.70;;
75634;SDS011;64227;48.724;9.104;2023-02-26T02:33:36;2.40;;;0.60;;
75634;SDS011;64227;48.724;9.104;2023-02-26T02:39:10;2.63;;;0.95;;
75634;SDS011;64227;48.724;9.104;2023-02-26T02:41:48;0.82;;;0.50;;
75634;SDS011;64227;48.724;9.104;2023-02-26T02:44:17;1.70;;;0.63;;
75634;SDS011;64227;48.724;9.104;2023-02-26T02:46:45;1.70;;;1.23;;
75634;SDS011;64227;48.724;9.104;2023-02-26T02:49:12;1.27;;;0.73;;
75634;SDS011;64227;48.724;9.104;2023-02-26T02:51:59;0.88;;;0.77;;
75634;SDS011;64227;48.724;9.104;2023-02-26T02:54:30;1.80;;;0.73;;
75634;SDS011;64227;48.724;9.104;2023-02-26T02:57:01;1.05;;;0.70;;
75634;SDS011;64227;48.724;9.104;2023-02-26T02:59:38;1.58;;;0.68;;
75634;SDS011;64227;48.724;9.104;2023-02-26T03:02:07;3.25;;;0.80;;
75634;SDS011;64227;48.724;9.104;2023-02-26T03:04:35;0.73;;;0.60;;
75634;SDS011;64227;48.724;9.104;2023-02-26T03:07:01;0.70;;;0.60;;
75634;SDS011;64227;48.724;9.104;2023-02-26T03:09:26;1.02;;;0.65;;
75634;SDS011;64227;48.724;9.104;2023-02-26T03:11:51;0.88;;;0.65;;
75634;SDS011;64227;48.724;9.104;2023-02-26T03:14:17;1.00;;;0.90;;
75634;SDS011;64227;48.724;9.104;2023-02-26T03:22:06;0.70;;;0.68;;
75634;SDS011;64227;48.724;9.104;2023-02-26T03:24:40;1.00;;;0.82;;
75634;SDS011;64227;48.724;9.104;2023-02-26T03:27:19;1.02;;;0.63;;
75634;SDS011;64227;48.724;9.104;2023-02-26T03:29:55;2.38;;;0.88;;
75634;SDS011;64227;48.724;9.104;2023-02-26T03:32:27;3.15;;;0.65;;
75634;SDS011;64227;48.724;9.104;2023-02-26T03:34:58;0.90;;;0.80;;
75634;SDS011;64227;48.724;9.104;2023-02-26T03:37:45;0.98;;;0.70;;
75634;SDS011;64227;48.724;9.104;2023-02-26T03:40:56;1.35;;;0.60;;
75634;SDS011;64227;48.724;9.104;2023-02-26T03:43:09;1.33;;;1.02;;
75634;SDS011;64227;48.724;9.104;2023-02-26T03:45:38;2.63;;;0.60;;
75634;SDS011;64227;48.724;9.104;2023-02-26T03:48:06;1.58;;;0.80;;
75634;SDS011;64227;48.724;9.104;2023-02-26T03:53:06;0.88;;;0.65;;
75634;SDS011;64227;48.724;9.104;2023-02-26T03:55:34;0.85;;;0.55;;
75634;SDS011;64227;48.724;9.104;2023-02-26T03:58:05;0.80;;;0.50;;
75634;SDS011;64227;48.724;9.104;2023-02-26T04:00:30;0.82;;;0.55;;
75634;SDS011;64227;48.724;9.104;2023-02-26T04:03:01;2.90;;;0.80;;
75634;SDS011;64227;48.724;9.104;2023-02-26T04:05:32;1.27;;;0.70;;
75634;SDS011;64227;48.724;9.104;2023-02-26T04:08:06;2.47;;;1.10;;
75634;SDS011;64227;48.724;9.104;2023-02-26T04:10:36;1.85;;;0.85;;
75634;SDS011;64227;48.724;9.104;2023-02-26T04:13:05;0.60;;;0.60;;
75634;SDS011;64227;48.724;9.104;2023-02-26T04:15:31;0.40;;;0.40;;
75634;SDS011;64227;48.724;9.104;2023-02-26T04:17:56;0.93;;;0.60;;
75634;SDS011;64227;48.724;9.104;2023-02-26T04:20:21;0.95;;;0.47;;
75634;SDS011;64227;48.724;9.104;2023-02-26T04:22:47;1.42;;;0.70;;
75634;SDS011;64227;48.724;9.104;2023-02-26T04:25:12;3.95;;;0.63;;
75634;SDS011;64227;48.724;9.104;2023-02-26T04:27:38;3.00;;;0.80;;
75634;SDS011;64227;48.724;9.104;2023-02-26T04:30:03;0.63;;;0.60;;
75634;SDS011;64227;48.724;9.104;2023-02-26T04:32:29;1.27;;;0.50;;
75634;SDS011;64227;48.724;9.104;2023-02-26T04:34:54;2.95;;;0.70;;
75634;SDS011;64227;48.724;9.104;2023-02-26T04:37:19;0.70;;;0.40;;
75634;SDS011;64227;48.724;9.104;2023-02-26T04:39:45;0.70;;;0.50;;
75634;SDS011;64227;48.724;9.104;2023-02-26T04:42:10;1.25;;;0.55;;
75634;SDS011;64227;48.724;9.104;2023-02-26T04:44:35;3.08;;;0.80;;
75634;SDS011;64227;48.724;9.104;2023-02-26T04:47:00;1.58;;;0.80;;
75634;SDS011;64227;48.724;9.104;2023-02-26T04:49:26;0.88;;;0.50;;
75634;SDS011;64227;48.724;9.104;2023-02-26T04:51:51;1.13;;;0.80;;
75634;SDS011;64227;48.724;9.104;2023-02-26T04:54:17;2.30;;;0.60;;
75634;SDS011;64227;48.724;9.104;2023-02-26T04:56:43;1.40;;;0.75;;
75634;SDS011;64227;48.724;9.104;2023-02-26T04:59:08;2.30;;;0.80;;
75634;SDS011;64227;48.724;9.104;2023-02-26T05:01:34;1.20;;;0.88;;
75634;SDS011;64227;48.724;9.104;2023-02-26T05:03:59;1.13;;;0.90;;
75634;SDS011;64227;48.724;9.104;2023-02-26T05:06:25;2.28;;;1.40;;
75634;SDS011;64227;48.724;9.104;2023-02-26T05:08:50;4.00;;;0.98;;
75634;SDS011;64227;48.724;9.104;2023-02-26T05:11:15;1.27;;;0.73;;
75634;SDS011;64227;48.724;9.104;2023-02-26T05:13:41;1.92;;;1.02;;
75634;SDS011;64227;48.724;9.104;2023-02-26T05:16:06;2.25;;;0.80;;
75634;SDS011;64227;48.724;9.104;2023-02-26T05:18:32;1.42;;;0.70;;
75634;SDS011;64227;48.724;9.104;2023-02-26T05:20:57;2.03;;;1.00;;
75634;SDS011;64227;48.724;9.104;2023-02-26T05:23:23;1.27;;;0.98;;
75634;SDS011;64227;48.724;9.104;2023-02-26T05:25:48;1.17;;;0.88;;
75634;SDS011;64227;48.724;9.104;2023-02-26T05:28:14;1.10;;;0.85;;
75634;SDS011;64227;48.724;9.104;2023-02-26T05:30:39;3.25;;;0.80;;
75634;SDS011;64227;48.724;9.104;2023-02-26T05:33:05;1.15;;;0.82;;
75634;SDS011;64227;48.724;9.104;2023-02-26T05:35:31;0.77;;;0.50;;
75634;SDS011;64227;48.724;9.104;2023-02-26T05:37:57;0.85;;;0.55;;
75634;SDS011;64227;48.724;9.104;2023-02-26T05:40:22;0.45;;;0.45;;
75634;SDS011;64227;48.724;9.104;2023-02-26T05:42:48;0.75;;;0.63;;
75634;SDS011;64227;48.724;9.104;2023-02-26T05:45:13;2.78;;;0.80;;
75634;SDS011;64227;48.724;9.104;2023-02-26T05:47:38;4.78;;;0.95;;
75634;SDS011;64227;48.724;9.104;2023-02-26T05:50:04;1.58;;;1.10;;
75634;SDS011;64227;48.724;9.104;2023-02-26T05:52:29;0.95;;;0.77;;
75634;SDS011;64227;48.724;9.104;2023-02-26T05:54:55;0.95;;;0.75;;
75634;SDS011;64227;48.724;9.104;2023-02-26T05:57:20;0.90;;;0.70;;
75634;SDS011;64227;48.724;9.104;2023-02-26T05:59:46;4.07;;;1.17;;
75634;SDS011;64227;48.724;9.104;2023-02-26T06:02:12;1.63;;;0.88;;
75634;SDS011;64227;48.724;9.104;2023-02-26T06:04:37;2.50;;;0.98;;
75634;SDS011;64227;48.724;9.104;2023-02-26T06:07:02;2.42;;;0.80;;
75634;SDS011;64227;48.724;9.104;2023-02-26T06:09:28;1.95;;;0.65;;
75634;SDS011;64227;48.724;9.104;2023-02-26T06:11:53;1.38;;;0.73;;
75634;SDS011;64227;48.724;9.104;2023-02-26T06:14:19;0.50;;;0.50;;
75634;SDS011;64227;48.724;9.104;2023-02-26T06:16:44;1.08;;;0.80;;
75634;SDS011;64227;48.724;9.104;2023-02-26T06:19:09;0.50;;;0.40;;
75634;SDS011;64227;48.724;9.104;2023-02-26T06:21:35;2.50;;;0.80;;
75634;SDS011;64227;48.724;9.104;2023-02-26T06:24:00;3.47;;;1.20;;
75634;SDS011;64227;48.724;9.104;2023-02-26T06:26:25;1.13;;;0.77;;
75634;SDS011;64227;48.724;9.104;2023-02-26T06:28:51;1.23;;;0.73;;
75634;SDS011;64227;48.724;9.104;2023-02-26T06:31:16;1.52;;;1.10;;
75634;SDS011;64227;48.724;9.104;2023-02-26T06:33:41;1.83;;;0.70;;
75634;SDS011;64227;48.724;9.104;2023-02-26T06:36:07;2.85;;;1.30;;
75634;SDS011;64227;48.724;9.104;2023-02-26T06:38:32;1.30;;;0.75;;
75634;SDS011;64227;48.724;9.104;2023-02-26T06:40:57;1.10;;;1.00;;
75634;SDS011;64227;48.724;9.104;2023-02-26T06:43:23;1.10;;;1.05;;
75634;SDS011;64227;48.724;9.104;2023-02-26T06:45:48;3.35;;;1.38;;
75634;SDS011;64227;48.724;9.104;2023-02-26T06:48:13;4.32;;;1.13;;
75634;SDS011;64227;48.724;9.104;2023-02-26T06:50:39;3.63;;;1.40;;
75634;SDS011;64227;48.724;9.104;2023-02-26T06:53:04;4.90;;;1.52;;
75634;SDS011;64227;48.724;9.104;2023-02-26T06:55:29;3.17;;;1.70;;
75634;SDS011;64227;48.724;9.104;2023-02-26T06:57:55;3.88;;;1.58;;
75634;SDS011;64227;48.724;9.104;2023-02-26T07:00:21;2.38;;;1.52;;
75634;SDS011;64227;48.724;9.104;2023-02-26T07:02:47;3.47;;;1.27;;
75634;SDS011;64227;48.724;9.104;2023-02-26T07:05:12;2.78;;;1.45;;
75634;SDS011;64227;48.724;9.104;2023-02-26T07:07:38;6.78;;;1.60;;
75634;SDS011;64227;48.724;9.104;2023-02-26T07:10:03;3.22;;;0.98;;
75634;SDS011;64227;48.724;9.104;2023-02-26T07:12:29;2.83;;;0.95;;
75634;SDS011;64227;48.724;9.104;2023-02-26T07:14:54;1.05;;;0.95;;
75634;SDS011;64227;48.724;9.104;2023-02-26T07:17:20;1.52;;;0.75;;
75634;SDS011;64227;48.724;9.104;2023-02-26T07:19:49;4.20;;;1.02;;
75634;SDS011;64227;48.724;9.104;2023-02-26T07:22:16;1.80;;;1.02;;
75634;SDS011;64227;48.724;9.104;2023-02-26T07:24:43;4.50;;;1.45;;
75634;SDS011;64227;48.724;9.104;2023-02-26T07:27:09;2.42;;;1.73;;
75634;SDS011;64227;48.724;9.104;2023-02-26T07:29:34;15.57;;;2.38;;
75634;SDS011;64227;48.724;9.104;2023-02-26T07:32:00;10.57;;;2.67;;
75634;SDS011;64227;48.724;9.104;2023-02-26T07:34:25;25.42;;;4.68;;
75634;SDS011;64227;48.724;9.104;2023-02-26T07:36:50;19.10;;;5.15;;
75634;SDS011;64227;48.724;9.104;2023-02-26T07:39:16;7.50;;;2.93;;
75634;SDS011;64227;48.724;9.104;2023-02-26T07:41:41;6.97;;;2.90;;
75634;SDS011;64227;48.724;9.104;2023-02-26T07:44:06;5.85;;;2.78;;
75634;SDS011;64227;48.724;9.104;2023-02-26T07:46:32;3.22;;;1.70;;
75634;SDS011;64227;48.724;9.104;2023-02-26T07:48:57;2.00;;;1.55;;
75634;SDS011;64227;48.724;9.104;2023-02-26T07:51:23;2.75;;;1.70;;
75634;SDS011;64227;48.724;9.104;2023-02-26T07:53:48;2.00;;;1.30;;
75634;SDS011;64227;48.724;9.104;2023-02-26T07:56:13;1.50;;;1.23;;
75634;SDS011;64227;48.724;9.104;2023-02-26T07:58:38;2.25;;;1.27;;
75634;SDS011;64227;48.724;9.104;2023-02-26T08:01:04;1.48;;;1.10;;
75634;SDS011;64227;48.724;9.104;2023-02-26T08:03:29;5.40;;;1.95;;
75634;SDS011;64227;48.724;9.104;2023-02-26T08:05:56;12.25;;;4.32;;
75634;SDS011;64227;48.724;9.104;2023-02-26T08:08:24;7.45;;;2.55;;
75634;SDS011;64227;48.724;9.104;2023-02-26T08:10:49;4.25;;;2.08;;
75634;SDS011;64227;48.724;9.104;2023-02-26T08:13:15;3.03;;;1.65;;
75634;SDS011;64227;48.724;9.104;2023-02-26T08:15:40;3.78;;;1.58;;
75634;SDS011;64227;48.724;9.104;2023-02-26T08:18:07;2.70;;;0.85;;
75634;SDS011;64227;48.724;9.104;2023-02-26T08:20:33;1.50;;;1.02;;
75634;SDS011;64227;48.724;9.104;2023-02-26T08:22:59;2.65;;;1.58;;
75634;SDS011;64227;48.724;9.104;2023-02-26T08:25:24;0.95;;;0.80;;
75634;SDS011;64227;48.724;9.104;2023-02-26T08:27:49;6.90;;;3.47;;
75634;SDS011;64227;48.724;9.104;2023-02-26T08:30:15;11.68;;;4.00;;
75634;SDS011;64227;48.724;9.104;2023-02-26T08:32:40;8.35;;;5.38;;
75634;SDS011;64227;48.724;9.104;2023-02-26T08:35:06;6.57;;;3.45;;
75634;SDS011;64227;48.724;9.104;2023-02-26T08:37:32;4.40;;;2.55;;
75634;SDS011;64227;48.724;9.104;2023-02-26T08:39:57;3.10;;;1.75;;
75634;SDS011;64227;48.724;9.104;2023-02-26T08:42:23;4.95;;;2.20;;
75634;SDS011;64227;48.724;9.104;2023-02-26T08:44:48;2.13;;;1.20;;
75634;SDS011;64227;48.724;9.104;2023-02-26T08:47:13;1.85;;;0.98;;
75634;SDS011;64227;48.724;9.104;2023-02-26T08:49:39;1.75;;;1.30;;
75634;SDS011;64227;48.724;9.104;2023-02-26T08:52:04;1.77;;;1.30;;
75634;SDS011;64227;48.724;9.104;2023-02-26T08:54:29;1.40;;;1.00;;
75634;SDS011;64227;48.724;9.104;2023-02-26T08:56:56;1.67;;;0.98;;
75634;SDS011;64227;48.724;9.104;2023-02-26T08:59:22;3.72;;;1.10;;
75634;SDS011;64227;48.724;9.104;2023-02-26T09:01:50;2.10;;;1.20;;
75634;SDS011;64227;48.724;9.104;2023-02-26T09:04:16;2.10;;;1.07;;
75634;SDS011;64227;48.724;9.104;2023-02-26T09:06:41;3.05;;;1.55;;
75634;SDS011;64227;48.724;9.104;2023-02-26T09:09:06;3.42;;;1.35;;
75634;SDS011;64227;48.724;9.104;2023-02-26T09:11:32;2.88;;;1.00;;
75634;SDS011;64227;48.724;9.104;2023-02-26T09:13:57;3.03;;;1.00;;
75634;SDS011;64227;48.724;9.104;2023-02-26T09:16:23;2.25;;;1.30;;
75634;SDS011;64227;48.724;9.104;2023-02-26T09:18:49;1.35;;;1.23;;
75634;SDS011;64227;48.724;9.104;2023-02-26T09:21:14;2.92;;;1.35;;
75634;SDS011;64227;48.724;9.104;2023-02-26T09:23:40;2.60;;;1.48;;
75634;SDS011;64227;48.724;9.104;2023-02-26T09:26:05;2.08;;;1.30;;
75634;SDS011;64227;48.724;9.104;2023-02-26T09:28:32;2.15;;;1.45;;
75634;SDS011;64227;48.724;9.104;2023-02-26T09:30:58;2.30;;;1.58;;
75634;SDS011;64227;48.724;9.104;2023-02-26T09:33:23;3.35;;;1.70;;
75634;SDS011;64227;48.724;9.104;2023-02-26T09:35:49;3.80;;;1.73;;
75634;SDS011;64227;48.724;9.104;2023-02-26T09:38:16;2.42;;;1.90;;
75634;SDS011;64227;48.724;9.104;2023-02-26T09:40:43;5.13;;;2.70;;
75634;SDS011;64227;48.724;9.104;2023-02-26T09:46:08;3.80;;;1.92;;
75634;SDS011;64227;48.724;9.104;2023-02-26T09:48:35;6.32;;;2.42;;
75634;SDS011;64227;48.724;9.104;2023-02-26T09:51:02;4.80;;;3.28;;
75634;SDS011;64227;48.724;9.104;2023-02-26T09:53:30;1.90;;;1.42;;
75634;SDS011;64227;48.724;9.104;2023-02-26T09:55:58;2.15;;;1.67;;
75634;SDS011;64227;48.724;9.104;2023-02-26T09:58:30;2.95;;;1.77;;
75634;SDS011;64227;48.724;9.104;2023-02-26T10:01:04;4.65;;;2.05;;
75634;SDS011;64227;48.724;9.104;2023-02-26T10:06:14;3.50;;;1.60;;
75634;SDS011;64227;48.724;9.104;2023-02-26T10:11:12;1.70;;;1.23;;
75634;SDS011;64227;48.724;9.104;2023-02-26T10:13:46;1.35;;;1.17;;
75634;SDS011;64227;48.724;9.104;2023-02-26T10:16:17;2.88;;;2.00;;
75634;SDS011;64227;48.724;9.104;2023-02-26T10:18:48;3.55;;;1.80;;
75634;SDS011;64227;48.724;9.104;2023-02-26T10:24:29;1.88;;;1.50;;
75634;SDS011;64227;48.724;9.104;2023-02-26T10:27:01;2.42;;;1.65;;
75634;SDS011;64227;48.724;9.104;2023-02-26T10:29:36;3.25;;;1.80;;
75634;SDS011;64227;48.724;9.104;2023-02-26T10:37:55;3.25;;;2.25;;
75634;SDS011;64227;48.724;9.104;2023-02-26T10:42:58;2.25;;;1.92;;
75634;SDS011;64227;48.724;9.104;2023-02-26T10:45:34;3.83;;;1.50;;
75634;SDS011;64227;48.724;9.104;2023-02-26T10:50:57;2.30;;;1.77;;
75634;SDS011;64227;48.724;9.104;2023-02-26T10:53:24;2.53;;;1.98;;
75634;SDS011;64227;48.724;9.104;2023-02-26T10:58:36;3.70;;;2.08;;
75634;SDS011;64227;48.724;9.104;2023-02-26T11:01:01;1.73;;;1.50;;
75634;SDS011;64227;48.724;9.104;2023-02-26T11:03:33;2.45;;;1.27;;
75634;SDS011;64227;48.724;9.104;2023-02-26T11:06:01;1.58;;;0.90;;
75634;SDS011;64227;48.724;9.104;2023-02-26T11:08:30;2.05;;;1.27;;
75634;SDS011;64227;48.724;9.104;2023-02-26T11:11:01;2.60;;;1.38;;
75634;SDS011;64227;48.724;9.104;2023-02-26T11:13:30;4.70;;;1.45;;
75634;SDS011;64227;48.724;9.104;2023-02-26T11:15:57;4.00;;;1.70;;
75634;SDS011;64227;48.724;9.104;2023-02-26T11:18:29;5.55;;;1.67;;
75634;SDS011;64227;48.724;9.104;2023-02-26T11:20:57;14.63;;;4.25;;
75634;SDS011;64227;48.724;9.104;2023-02-26T11:23:25;25.08;;;6.15;;
75634;SDS011;64227;48.724;9.104;2023-02-26T11:26:00;10.40;;;4.07;;
75634;SDS011;64227;48.724;9.104;2023-02-26T11:28:31;3.90;;;1.50;;
75634;SDS011;64227;48.724;9.104;2023-02-26T11:31:00;2.33;;;1.20;;
75634;SDS011;64227;48.724;9.104;2023-02-26T11:36:05;1.05;;;0.98;;
75634;SDS011;64227;48.724;9.104;2023-02-26T11:38:33;1.13;;;1.00;;
75634;SDS011;64227;48.724;9.104;2023-02-26T11:40:59;1.83;;;1.30;;
75634;SDS011;64227;48.724;9.104;2023-02-26T11:43:26;2.38;;;1.85;;
75634;SDS011;64227;48.724;9.104;2023-02-26T11:45:59;2.72;;;1.70;;
75634;SDS011;64227;48.724;9.104;2023-02-26T11:48:27;1.15;;;1.05;;
75634;SDS011;64227;48.724;9.104;2023-02-26T11:50:58;3.70;;;2.25;;
75634;SDS011;64227;48.724;9.104;2023-02-26T11:55:57;2.25;;;1.92;;
75634;SDS011;64227;48.724;9.104;2023-02-26T11:58:24;2.40;;;1.75;;
75634;SDS011;64227;48.724;9.104;2023-02-26T12:00:53;2.90;;;2.20;;
75634;SDS011;64227;48.724;9.104;2023-02-26T12:03:20;3.17;;;2.13;;
75634;SDS011;64227;48.724;9.104;2023-02-26T12:05:46;2.25;;;1.63;;
75634;SDS011;64227;48.724;9.104;2023-02-26T12:08:35;2.53;;;1.60;;
75634;SDS011;64227;48.724;9.104;2023-02-26T12:11:28;2.42;;;1.30;;
75634;SDS011;64227;48.724;9.104;2023-02-26T12:17:10;1.83;;;1.05;;
75634;SDS011;64227;48.724;9.104;2023-02-26T12:36:53;2.38;;;1.10;;
75634;SDS011;64227;48.724;9.104;2023-02-26T12:39:47;1.42;;;1.20;;
75634;SDS011;64227;48.724;9.104;2023-02-26T12:42:24;1.35;;;0.98;;
75634;SDS011;64227;48.724;9.104;2023-02-26T13:10:05;3.65;;;1.85;;
75634;SDS011;64227;48.724;9.104;2023-02-26T13:12:45;6.10;;;2.15;;
75634;SDS011;64227;48.724;9.104;2023-02-26T13:15:21;3.33;;;1.65;;
75634;SDS011;64227;48.724;9.104;2023-02-26T13:20:23;3.38;;;1.33;;
75634;SDS011;64227;48.724;9.104;2023-02-26T13:23:03;2.05;;;1.48;;
75634;SDS011;64227;48.724;9.104;2023-02-26T13:25:39;3.80;;;2.30;;
75634;SDS011;64227;48.724;9.104;2023-02-26T13:28:58;2.45;;;1.48;;
75634;SDS011;64227;48.724;9.104;2023-02-26T13:31:07;5.30;;;2.55;;
75634;SDS011;64227;48.724;9.104;2023-02-26T13:33:36;2.05;;;1.30;;
75634;SDS011;64227;48.724;9.104;2023-02-26T13:36:03;2.53;;;1.27;;
75634;SDS011;64227;48.724;9.104;2023-02-26T13:38:42;1.55;;;1.27;;
75634;SDS011;64227;48.724;9.104;2023-02-26T13:49:13;1.55;;;1.00;;
75634;SDS011;64227;48.724;9.104;2023-02-26T13:51:43;1.08;;;0.98;;
75634;SDS011;64227;48.724;9.104;2023-02-26T13:56:42;1.85;;;1.17;;
75634;SDS011;64227;48.724;9.104;2023-02-26T14:01:54;1.63;;;1.00;;
75634;SDS011;64227;48.724;9.104;2023-02-26T14:06:47;0.80;;;0.80;;
75634;SDS011;64227;48.724;9.104;2023-02-26T14:29:40;2.83;;;1.70;;
75634;SDS011;64227;48.724;9.104;2023-02-26T14:32:12;6.28;;;2.33;;
75634;SDS011;64227;48.724;9.104;2023-02-26T14:34:46;2.30;;;1.77;;
75634;SDS011;64227;48.724;9.104;2023-02-26T14:37:18;4.60;;;2.22;;
75634;SDS011;64227;48.724;9.104;2023-02-26T14:39:49;2.58;;;1.20;;
75634;SDS011;64227;48.724;9.104;2023-02-26T14:42:27;1.42;;;0.82;;
75634;SDS011;64227;48.724;9.104;2023-02-26T14:44:57;0.60;;;0.60;;
75634;SDS011;64227;48.724;9.104;2023-02-26T14:47:28;1.20;;;1.00;;
75634;SDS011;64227;48.724;9.104;2023-02-26T14:49:53;1.48;;;0.88;;
75634;SDS011;64227;48.724;9.104;2023-02-26T14:55:12;3.40;;;1.40;;
75634;SDS011;64227;48.724;9.104;2023-02-26T15:06:49;3.13;;;1.00;;
75634;SDS011;64227;48.724;9.104;2023-02-26T15:09:18;2.95;;;1.30;;
75634;SDS011;64227;48.724;9.104;2023-02-26T15:14:40;1.45;;;1.08;;
75634;SDS011;64227;48.724;9.104;2023-02-26T15:17:13;1.70;;;0.80;;
75634;SDS011;64227;48.724;9.104;2023-02-26T15:25:12;1.67;;;0.90;;
75634;SDS011;64227;48.724;9.104;2023-02-26T15:27:43;1.65;;;0.60;;
75634;SDS011;64227;48.724;9.104;2023-02-26T15:30:12;2.55;;;1.10;;
75634;SDS011;64227;48.724;9.104;2023-02-26T15:32:39;1.45;;;1.10;;
75634;SDS011;64227;48.724;9.104;2023-02-26T15:35:15;3.08;;;1.33;;
75634;SDS011;64227;48.724;9.104;2023-02-26T15:37:42;2.13;;;1.35;;
75634;SDS011;64227;48.724;9.104;2023-02-26T15:40:13;3.13;;;1.58;;
75634;SDS011;64227;48.724;9.104;2023-02-26T15:42:39;3.00;;;1.52;;
75634;SDS011;64227;48.724;9.104;2023-02-26T15:45:09;2.60;;;1.02;;
75634;SDS011;64227;48.724;9.104;2023-02-26T15:47:38;3.92;;;1.70;;
75634;SDS011;64227;48.724;9.104;2023-02-26T15:50:03;4.65;;;1.88;;
75634;SDS011;64227;48.724;9.104;2023-02-26T15:52:29;2.75;;;1.42;;
75634;SDS011;64227;48.724;9.104;2023-02-26T15:54:59;2.95;;;1.45;;
75634;SDS011;64227;48.724;9.104;2023-02-26T15:57:27;1.85;;;1.10;;
75634;SDS011;64227;48.724;9.104;2023-02-26T15:59:54;6.10;;;2.45;;
75634;SDS011;64227;48.724;9.104;2023-02-26T16:02:27;4.28;;;2.67;;
75634;SDS011;64227;48.724;9.104;2023-02-26T16:04:54;3.47;;;1.55;;
75634;SDS011;64227;48.724;9.104;2023-02-26T16:07:20;5.82;;;2.85;;
75634;SDS011;64227;48.724;9.104;2023-02-26T16:09:46;3.65;;;2.55;;
75634;SDS011;64227;48.724;9.104;2023-02-26T16:14:43;4.60;;;1.95;;
75634;SDS011;64227;48.724;9.104;2023-02-26T16:17:12;2.50;;;1.67;;
75634;SDS011;64227;48.724;9.104;2023-02-26T16:19:44;2.65;;;1.80;;
75634;SDS011;64227;48.724;9.104;2023-02-26T16:25:04;2.40;;;1.83;;
75634;SDS011;64227;48.724;9.104;2023-02-26T16:27:30;1.55;;;1.30;;
75634;SDS011;64227;48.724;9.104;2023-02-26T16:29:56;1.70;;;1.25;;
75634;SDS011;64227;48.724;9.104;2023-02-26T16:32:24;3.03;;;1.52;;
75634;SDS011;64227;48.724;9.104;2023-02-26T16:34:52;1.63;;;1.50;;
75634;SDS011;64227;48.724;9.104;2023-02-26T16:39:47;1.48;;;1.23;;
75634;SDS011;64227;48.724;9.104;2023-02-26T16:42:59;3.20;;;1.88;;
75634;SDS011;64227;48.724;9.104;2023-02-26T16:48:23;1.13;;;1.00;;
75634;SDS011;64227;48.724;9.104;2023-02-26T16:50:57;6.45;;;1.58;;
75634;SDS011;64227;48.724;9.104;2023-02-26T16:53:29;2.78;;;1.23;;
75634;SDS011;64227;48.724;9.104;2023-02-26T16:55:58;3.08;;;1.23;;
75634;SDS011;64227;48.724;9.104;2023-02-26T16:58:23;7.10;;;2.25;;
75634;SDS011;64227;48.724;9.104;2023-02-26T17:00:49;5.10;;;1.35;;
75634;SDS011;64227;48.724;9.104;2023-02-26T17:03:22;17.92;;;3.65;;
75634;SDS011;64227;48.724;9.104;2023-02-26T17:11:21;16.95;;;5.72;;
75634;SDS011;64227;48.724;9.104;2023-02-26T17:16:51;5.82;;;2.83;;
75634;SDS011;64227;48.724;9.104;2023-02-26T17:19:17;2.53;;;1.85;;
75634;SDS011;64227;48.724;9.104;2023-02-26T17:21:44;1.15;;;0.90;;
75634;SDS011;64227;48.724;9.104;2023-02-26T17:24:16;1.20;;;1.10;;
75634;SDS011;64227;48.724;9.104;2023-02-26T17:26:43;2.50;;;0.80;;
75634;SDS011;64227;48.724;9.104;2023-02-26T17:29:14;1.35;;;0.88;;
75634;SDS011;64227;48.724;9.104;2023-02-26T17:31:44;1.17;;;0.70;;
75634;SDS011;64227;48.724;9.104;2023-02-26T17:34:10;1.27;;;0.93;;
75634;SDS011;64227;48.724;9.104;2023-02-26T17:36:35;2.28;;;1.00;;
75634;SDS011;64227;48.724;9.104;2023-02-26T17:39:00;2.20;;;1.10;;
75634;SDS011;64227;48.724;9.104;2023-02-26T17:41:26;1.63;;;0.80;;
75634;SDS011;64227;48.724;9.104;2023-02-26T17:43:52;2.33;;;1.00;;
75634;SDS011;64227;48.724;9.104;2023-02-26T17:46:17;1.88;;;1.20;;
75634;SDS011;64227;48.724;9.104;2023-02-26T17:48:43;3.33;;;1.65;;
75634;SDS011;64227;48.724;9.104;2023-02-26T17:51:22;6.82;;;2.00;;
75634;SDS011;64227;48.724;9.104;2023-02-26T17:53:54;5.32;;;2.65;;
75634;SDS011;64227;48.724;9.104;2023-02-26T17:56:26;4.93;;;1.48;;
75634;SDS011;64227;48.724;9.104;2023-02-26T17:58:53;4.63;;;2.20;;
75634;SDS011;64227;48.724;9.104;2023-02-26T18:01:19;7.60;;;2.45;;
75634;SDS011;64227;48.724;9.104;2023-02-26T18:03:47;8.20;;;3.65;;
75634;SDS011;64227;48.724;9.104;2023-02-26T18:06:13;5.75;;;2.20;;
75634;SDS011;64227;48.724;9.104;2023-02-26T18:08:39;3.72;;;1.42;;
75634;SDS011;64227;48.724;9.104;2023-02-26T18:11:05;2.10;;;1.30;;